CO-0049 weather

Isa Giron Heliport
Giron, Santander Department, Colombia

Public forecast

Using degrees Celsius for public forecast. Weather courtesy of forecast.io.

Closest aviation weather report (METAR) to Isa Giron Heliport

Closest report is Palonegro Airport, 5.2 nm (9.7 km) NW. Retrieved 2019/10/21 18:00 UTC (41 minutes ago):

SKBG 211800Z 31009KT 280V360 9999 1500N BCFG BKN006 21/19 A3002 WS RWY35

Closest aviation forecast (TAF) to Isa Giron Heliport

Closest forecast is Palonegro Airport, 5.2 nm (9.7 km) NW. Retrieved 2019/10/21 18:48 UTC (0 seconds ago):

TAF TAF SKBG 211630Z 2118/2218 32008KT 9999 SCT017 SCT090 TEMPO 2121/2124 5000 RADZ SCT010CB SCT070 BECMG 2201/2203 VRB03KT FEW015 TEMPO 2209/2214 2000 BCFG DZ SCT007 BECMG 2214/2216 32008KT SCT017 SCT080 TX27/2119Z TN18/2211Z